createdAt,value
2018-07-30T00:01:53.720Z,1.30
2018-07-30T00:04:21.655Z,0.80
2018-07-30T00:06:49.600Z,0.70
2018-07-30T00:09:17.541Z,0.80
2018-07-30T00:11:45.469Z,0.80
2018-07-30T00:14:13.404Z,0.70
2018-07-30T00:16:41.333Z,1.10
2018-07-30T00:19:09.251Z,0.87
2018-07-30T00:21:37.200Z,0.90
2018-07-30T00:24:05.189Z,0.60
2018-07-30T00:26:33.123Z,0.70
2018-07-30T00:29:01.075Z,0.80
2018-07-30T00:31:29.086Z,1.07
2018-07-30T00:33:56.937Z,0.80
2018-07-30T00:36:24.862Z,1.10
2018-07-30T00:38:52.792Z,0.80
2018-07-30T00:41:20.718Z,1.00
2018-07-30T00:43:48.656Z,1.20
2018-07-30T00:46:16.595Z,1.50
2018-07-30T00:48:44.531Z,1.10
2018-07-30T00:51:12.464Z,1.10
2018-07-30T00:53:40.386Z,0.87
2018-07-30T00:56:08.418Z,1.10
2018-07-30T00:58:36.358Z,1.40
2018-07-30T01:01:04.284Z,1.40
2018-07-30T01:03:32.219Z,1.30
2018-07-30T01:06:00.146Z,1.10
2018-07-30T01:08:28.078Z,0.90
2018-07-30T01:10:56.003Z,1.10
2018-07-30T01:13:23.980Z,0.93
2018-07-30T01:15:51.914Z,0.87
2018-07-30T01:18:19.851Z,0.90
2018-07-30T01:20:47.800Z,1.10
2018-07-30T01:23:15.738Z,0.90
2018-07-30T01:25:43.812Z,0.80
2018-07-30T01:28:11.744Z,0.80
2018-07-30T01:30:39.664Z,1.00
2018-07-30T01:33:07.587Z,1.20
2018-07-30T01:35:35.511Z,1.23
2018-07-30T01:38:03.459Z,1.33
2018-07-30T01:40:31.388Z,1.10
2018-07-30T01:42:59.323Z,1.00
2018-07-30T01:45:27.262Z,1.20
2018-07-30T01:47:55.202Z,1.50
2018-07-30T01:50:23.127Z,1.33
2018-07-30T01:52:51.116Z,1.37
2018-07-30T01:55:19.059Z,1.00
2018-07-30T01:57:47.094Z,2.60
2018-07-30T02:00:15.034Z,1.33
2018-07-30T02:05:15.072Z,1.97
2018-07-30T02:07:43.039Z,1.27
2018-07-30T02:10:11.652Z,1.27
2018-07-30T02:12:39.912Z,1.00
2018-07-30T02:15:08.179Z,1.30
2018-07-30T02:17:36.201Z,0.93
2018-07-30T02:20:04.583Z,1.37
2018-07-30T02:22:32.579Z,1.30
2018-07-30T02:25:00.507Z,1.27
2018-07-30T02:27:28.441Z,1.13
2018-07-30T02:29:56.373Z,0.90
2018-07-30T02:32:24.319Z,1.37
2018-07-30T02:34:52.256Z,1.13
2018-07-30T02:37:20.848Z,1.30
2018-07-30T02:39:48.760Z,1.17
2018-07-30T02:42:16.687Z,0.93
2018-07-30T02:44:44.599Z,0.97
2018-07-30T02:47:12.551Z,1.10
2018-07-30T02:49:40.493Z,1.50
2018-07-30T02:52:08.420Z,1.67
2018-07-30T02:54:36.367Z,1.80
2018-07-30T02:57:04.300Z,1.43
2018-07-30T02:59:32.233Z,1.13
2018-07-30T03:02:00.167Z,1.40
2018-07-30T03:04:28.124Z,1.10
2018-07-30T03:06:56.040Z,1.20
2018-07-30T03:09:24.054Z,0.90
2018-07-30T03:11:51.954Z,1.37
2018-07-30T03:14:19.880Z,1.13
2018-07-30T03:16:47.799Z,1.23
2018-07-30T03:19:15.760Z,1.60
2018-07-30T03:21:43.691Z,1.40
2018-07-30T03:24:11.645Z,1.60
2018-07-30T03:26:39.586Z,1.33
2018-07-30T03:29:07.516Z,1.10
2018-07-30T03:31:35.443Z,1.20
2018-07-30T03:34:03.380Z,1.33
2018-07-30T03:36:31.354Z,1.20
2018-07-30T03:38:59.300Z,1.13
2018-07-30T03:41:27.235Z,1.30
2018-07-30T03:43:55.177Z,1.83
2018-07-30T03:46:23.092Z,1.40
2018-07-30T03:48:51.068Z,0.90
2018-07-30T03:51:18.992Z,1.13
2018-07-30T03:53:46.938Z,1.60
2018-07-30T03:59:01.866Z,1.20
2018-07-30T04:01:29.779Z,0.90
2018-07-30T04:03:57.716Z,1.30
2018-07-30T04:06:25.804Z,1.20
2018-07-30T04:08:53.746Z,1.27
2018-07-30T04:11:21.676Z,1.50
2018-07-30T04:13:49.627Z,1.67
2018-07-30T04:16:17.794Z,1.40
2018-07-30T04:18:45.736Z,1.20
2018-07-30T04:21:13.831Z,1.10
2018-07-30T04:23:41.767Z,1.20
2018-07-30T04:26:09.700Z,1.10
2018-07-30T04:28:37.631Z,1.00
2018-07-30T04:31:05.661Z,1.50
2018-07-30T04:33:33.655Z,1.10
2018-07-30T04:36:01.624Z,1.63
2018-07-30T04:38:29.661Z,0.97
2018-07-30T04:40:57.623Z,1.10
2018-07-30T04:43:25.550Z,1.00
2018-07-30T04:45:53.460Z,1.00
2018-07-30T04:48:21.379Z,1.30
2018-07-30T04:50:49.320Z,1.20
2018-07-30T04:53:17.318Z,1.20
2018-07-30T04:55:45.246Z,0.90
2018-07-30T04:58:13.147Z,1.20
2018-07-30T05:00:41.265Z,1.20
2018-07-30T05:03:09.184Z,1.10
2018-07-30T05:05:38.314Z,1.43
2018-07-30T05:08:06.224Z,1.30
2018-07-30T05:10:34.220Z,1.20
2018-07-30T05:13:02.206Z,1.20
2018-07-30T05:15:30.129Z,0.77
2018-07-30T05:17:58.085Z,0.83
2018-07-30T05:20:26.012Z,0.93
2018-07-30T05:22:54.071Z,1.27
2018-07-30T05:25:22.034Z,1.20
2018-07-30T05:27:49.951Z,1.40
2018-07-30T05:30:18.082Z,1.30
2018-07-30T05:32:46.014Z,1.17
2018-07-30T05:35:13.964Z,1.17
2018-07-30T05:37:41.895Z,1.37
2018-07-30T05:40:09.829Z,1.10
2018-07-30T05:42:37.798Z,1.40
2018-07-30T05:45:06.132Z,2.13
2018-07-30T05:47:34.063Z,1.40
2018-07-30T05:50:02.042Z,1.73
2018-07-30T05:52:29.939Z,1.50
2018-07-30T05:54:57.863Z,1.40
2018-07-30T05:57:25.800Z,2.30
2018-07-30T05:59:53.950Z,1.20
2018-07-30T06:02:21.786Z,1.17
2018-07-30T06:04:49.721Z,1.40
2018-07-30T06:07:17.652Z,1.83
2018-07-30T06:09:45.684Z,1.90
2018-07-30T06:12:13.663Z,1.60
2018-07-30T06:14:41.664Z,1.60
2018-07-30T06:17:09.774Z,1.77
2018-07-30T06:19:37.712Z,1.73
2018-07-30T06:22:05.623Z,1.80
2018-07-30T06:24:33.627Z,2.50
2018-07-30T06:27:01.576Z,1.67
2018-07-30T06:29:29.698Z,2.80
2018-07-30T06:31:57.663Z,2.47
2018-07-30T06:34:25.517Z,1.90
2018-07-30T06:36:58.223Z,2.00
2018-07-30T06:39:26.403Z,1.70
2018-07-30T06:41:54.327Z,2.13
2018-07-30T06:44:22.241Z,1.87
2018-07-30T06:46:50.167Z,2.33
2018-07-30T06:49:18.404Z,3.03
2018-07-30T06:51:46.391Z,1.70
2018-07-30T06:54:14.299Z,2.43
2018-07-30T06:56:42.256Z,1.77
2018-07-30T06:59:10.447Z,2.67
2018-07-30T07:01:38.382Z,2.47
2018-07-30T07:04:06.308Z,2.70
2018-07-30T07:06:34.427Z,2.00
2018-07-30T07:09:02.351Z,1.60
2018-07-30T07:11:30.282Z,2.10
2018-07-30T07:13:58.385Z,2.47
2018-07-30T07:16:26.350Z,2.20
2018-07-30T07:18:54.278Z,2.63
2018-07-30T07:21:22.276Z,2.87
2018-07-30T07:23:50.119Z,1.90
2018-07-30T07:26:18.060Z,2.20
2018-07-30T07:28:45.988Z,2.03
2018-07-30T07:31:13.916Z,2.90
2018-07-30T07:33:41.970Z,2.00
2018-07-30T07:36:09.915Z,2.63
2018-07-30T07:38:37.838Z,2.00
2018-07-30T07:41:06.155Z,2.83
2018-07-30T07:43:34.083Z,3.80
2018-07-30T07:46:02.069Z,2.30
2018-07-30T07:48:29.986Z,2.80
2018-07-30T07:50:58.145Z,2.07
2018-07-30T07:53:29.230Z,2.43
2018-07-30T07:55:57.205Z,2.27
2018-07-30T07:58:25.120Z,2.93
2018-07-30T08:00:53.064Z,2.30
2018-07-30T08:03:20.987Z,2.30
2018-07-30T08:05:48.902Z,2.03
2018-07-30T08:08:16.823Z,1.90
2018-07-30T08:10:44.756Z,2.13
2018-07-30T08:13:12.680Z,1.70
2018-07-30T08:15:40.604Z,1.77
2018-07-30T08:18:08.526Z,3.40
2018-07-30T08:20:36.465Z,2.53
2018-07-30T08:23:04.511Z,2.73
2018-07-30T08:25:32.447Z,4.03
2018-07-30T08:28:00.392Z,2.93
2018-07-30T08:30:28.314Z,2.37
2018-07-30T08:32:56.471Z,2.63
2018-07-30T08:35:24.378Z,2.60
2018-07-30T08:37:52.914Z,2.97
2018-07-30T08:40:20.827Z,3.03
2018-07-30T08:42:48.747Z,2.80
2018-07-30T08:45:16.666Z,3.77
2018-07-30T08:47:44.612Z,3.17
2018-07-30T08:50:12.556Z,3.70
2018-07-30T08:52:40.720Z,2.50
2018-07-30T08:55:08.695Z,2.30
2018-07-30T08:57:36.628Z,4.37
2018-07-30T09:00:05.523Z,2.73
2018-07-30T09:02:35.840Z,2.20
2018-07-30T09:05:03.766Z,3.37
2018-07-30T09:07:31.691Z,2.70
2018-07-30T09:09:59.617Z,2.77
2018-07-30T09:12:27.597Z,4.13
2018-07-30T09:14:55.470Z,2.77
2018-07-30T09:17:23.396Z,3.90
2018-07-30T09:19:51.323Z,2.50
2018-07-30T09:22:21.137Z,2.67
2018-07-30T09:24:49.046Z,2.47
2018-07-30T09:27:16.973Z,2.63
2018-07-30T09:29:44.896Z,2.90
2018-07-30T09:32:12.847Z,4.03
2018-07-30T09:34:40.842Z,3.50
2018-07-30T09:37:08.764Z,2.83
2018-07-30T09:39:36.759Z,2.58
2018-07-30T09:42:04.631Z,2.37
2018-07-30T09:44:32.589Z,3.57
2018-07-30T09:47:00.477Z,2.23
2018-07-30T09:49:28.384Z,2.67
2018-07-30T09:51:56.303Z,1.90
2018-07-30T09:54:24.219Z,3.20
2018-07-30T09:56:52.140Z,2.50
2018-07-30T09:59:20.664Z,2.13
2018-07-30T10:01:48.585Z,2.87
2018-07-30T10:04:16.503Z,2.53
2018-07-30T10:06:44.452Z,3.90
2018-07-30T10:09:12.613Z,2.55
2018-07-30T10:11:40.576Z,2.50
2018-07-30T10:14:08.863Z,2.57
2018-07-30T10:16:36.782Z,2.53
2018-07-30T10:19:04.692Z,2.30
2018-07-30T10:21:32.808Z,1.83
2018-07-30T10:24:00.699Z,1.90
2018-07-30T10:26:28.623Z,2.22
2018-07-30T10:28:56.571Z,2.20
2018-07-30T10:31:24.508Z,2.13
2018-07-30T10:33:52.566Z,2.27
2018-07-30T10:36:20.475Z,3.07
2018-07-30T10:38:48.539Z,2.00
2018-07-30T10:41:16.460Z,3.70
2018-07-30T10:43:44.387Z,2.13
2018-07-30T10:46:12.367Z,2.10
2018-07-30T10:48:40.252Z,2.00
2018-07-30T10:51:08.173Z,1.98
2018-07-30T10:53:40.508Z,2.37
2018-07-30T10:56:08.727Z,2.80
2018-07-30T10:58:36.675Z,3.33
2018-07-30T11:01:04.628Z,2.30
2018-07-30T11:03:32.540Z,3.33
2018-07-30T11:06:00.482Z,2.20
2018-07-30T11:08:28.416Z,1.80
2018-07-30T11:10:56.342Z,1.93
2018-07-30T11:13:24.492Z,2.80
2018-07-30T11:15:52.448Z,1.90
2018-07-30T11:18:20.383Z,2.00
2018-07-30T11:20:48.307Z,1.47
2018-07-30T11:23:16.243Z,1.83
2018-07-30T11:25:44.169Z,2.03
2018-07-30T11:28:12.145Z,2.27
2018-07-30T11:30:40.050Z,2.47
2018-07-30T11:33:08.003Z,2.33
2018-07-30T11:35:36.147Z,1.67
2018-07-30T11:38:04.072Z,1.80
2018-07-30T11:40:32.080Z,3.23
2018-07-30T11:43:00.079Z,2.20
2018-07-30T11:45:27.954Z,2.50
2018-07-30T11:47:55.879Z,1.43
2018-07-30T11:50:24.157Z,1.70
2018-07-30T11:52:52.106Z,2.17
2018-07-30T11:55:20.038Z,3.00
2018-07-30T11:57:48.000Z,2.90
2018-07-30T12:00:15.923Z,3.10
2018-07-30T12:02:43.865Z,1.90
2018-07-30T12:05:11.783Z,2.33
2018-07-30T12:07:39.720Z,3.13
2018-07-30T12:10:07.645Z,2.70
2018-07-30T12:12:35.598Z,2.90
2018-07-30T12:15:03.607Z,2.47
2018-07-30T12:17:31.520Z,3.23
2018-07-30T12:19:59.450Z,2.40
2018-07-30T12:22:27.364Z,2.07
2018-07-30T12:24:55.591Z,2.10
2018-07-30T12:27:23.662Z,1.97
2018-07-30T12:29:51.599Z,1.90
2018-07-30T12:34:49.935Z,2.40
2018-07-30T12:37:17.874Z,2.40
2018-07-30T12:39:45.824Z,3.00
2018-07-30T12:42:13.780Z,2.90
2018-07-30T12:44:41.706Z,2.33
2018-07-30T12:47:09.644Z,1.63
2018-07-30T12:49:38.005Z,2.03
2018-07-30T12:52:05.937Z,2.37
2018-07-30T12:54:33.870Z,1.80
2018-07-30T12:57:01.779Z,2.10
2018-07-30T12:59:29.779Z,1.83
2018-07-30T13:01:57.755Z,2.07
2018-07-30T13:04:26.716Z,1.77
2018-07-30T13:06:54.707Z,1.90
2018-07-30T13:09:22.652Z,2.00
2018-07-30T13:11:50.567Z,1.87
2018-07-30T13:14:18.664Z,2.00
2018-07-30T13:16:46.905Z,1.63
2018-07-30T13:19:14.846Z,1.80
2018-07-30T13:21:42.970Z,1.30
2018-07-30T13:24:10.937Z,2.03
2018-07-30T13:26:38.955Z,1.57
2018-07-30T13:29:06.832Z,1.47
2018-07-30T13:31:34.756Z,2.23
2018-07-30T13:34:02.672Z,2.20
2018-07-30T13:36:30.590Z,2.60
2018-07-30T13:38:58.516Z,2.37
2018-07-30T13:41:26.444Z,2.63
2018-07-30T13:43:54.381Z,2.97
2018-07-30T13:46:22.334Z,1.53
2018-07-30T13:48:50.236Z,1.30
2018-07-30T13:51:18.154Z,1.53
2018-07-30T13:53:46.083Z,1.63
2018-07-30T13:56:14.292Z,1.20
2018-07-30T13:58:42.228Z,2.10
2018-07-30T14:01:10.162Z,2.03
2018-07-30T14:03:38.078Z,2.00
2018-07-30T14:06:06.036Z,1.70
2018-07-30T14:08:33.918Z,1.60
2018-07-30T14:11:01.849Z,1.70
2018-07-30T14:13:29.860Z,3.00
2018-07-30T14:15:57.807Z,2.20
2018-07-30T14:18:25.744Z,1.57
2018-07-30T14:20:53.707Z,2.10
2018-07-30T14:23:21.646Z,1.57
2018-07-30T14:25:49.571Z,1.53
2018-07-30T14:28:17.735Z,2.67
2018-07-30T14:30:45.635Z,1.90
2018-07-30T14:33:13.561Z,2.10
2018-07-30T14:35:41.463Z,1.77
2018-07-30T14:38:09.373Z,1.27
2018-07-30T14:40:37.333Z,2.30
2018-07-30T14:43:05.270Z,1.80
2018-07-30T14:45:33.214Z,1.70
2018-07-30T14:48:01.120Z,2.00
2018-07-30T14:50:29.047Z,2.90
2018-07-30T14:52:57.977Z,2.53
2018-07-30T14:55:26.059Z,3.30
2018-07-30T14:57:54.037Z,1.67
2018-07-30T15:00:21.959Z,2.30
2018-07-30T15:02:49.880Z,2.03
2018-07-30T15:05:20.399Z,2.40
2018-07-30T15:07:48.512Z,2.67
2018-07-30T15:10:16.447Z,2.10
2018-07-30T15:12:44.371Z,2.00
2018-07-30T15:15:12.307Z,1.97
2018-07-30T15:17:40.243Z,8.40
2018-07-30T15:20:08.162Z,3.10
2018-07-30T15:22:36.149Z,2.93
2018-07-30T15:25:04.270Z,2.27
2018-07-30T15:27:32.243Z,1.60
2018-07-30T15:30:00.437Z,1.83
2018-07-30T15:32:28.899Z,2.77
2018-07-30T15:34:56.884Z,2.20
2018-07-30T15:37:24.804Z,2.13
2018-07-30T15:39:53.027Z,2.00
2018-07-30T15:42:21.051Z,2.20
2018-07-30T15:44:48.983Z,2.30
2018-07-30T15:47:16.981Z,1.97
2018-07-30T15:49:44.904Z,1.67
2018-07-30T15:52:12.876Z,2.07
2018-07-30T15:54:40.825Z,1.67
2018-07-30T15:57:08.727Z,1.90
2018-07-30T15:59:36.655Z,2.23
2018-07-30T16:02:04.587Z,1.40
2018-07-30T16:04:32.987Z,1.83
2018-07-30T16:07:00.896Z,1.77
2018-07-30T16:09:28.896Z,1.83
2018-07-30T16:11:57.139Z,2.70
2018-07-30T16:14:25.101Z,2.93
2018-07-30T16:16:53.027Z,2.07
2018-07-30T16:19:20.974Z,1.90
2018-07-30T16:21:48.904Z,2.70
2018-07-30T16:24:16.867Z,2.37
2018-07-30T16:26:44.845Z,1.97
2018-07-30T16:29:12.825Z,2.30
2018-07-30T16:31:41.918Z,1.77
2018-07-30T16:34:10.039Z,2.07
2018-07-30T16:36:37.992Z,1.53
2018-07-30T16:39:06.783Z,1.73
2018-07-30T16:41:34.739Z,1.70
2018-07-30T16:44:02.676Z,1.43
2018-07-30T16:46:30.607Z,3.03
2018-07-30T16:48:58.628Z,1.60
2018-07-30T16:51:26.570Z,1.90
2018-07-30T16:53:54.479Z,1.20
2018-07-30T16:56:22.411Z,1.10
2018-07-30T16:58:50.526Z,2.40
2018-07-30T17:01:18.477Z,1.63
2018-07-30T17:03:46.514Z,1.30
2018-07-30T17:06:14.544Z,1.07
2018-07-30T17:08:42.470Z,1.30
2018-07-30T17:11:10.576Z,1.20
2018-07-30T17:13:38.498Z,1.62
2018-07-30T17:16:06.435Z,1.93
2018-07-30T17:18:34.368Z,1.02
2018-07-30T17:21:02.298Z,1.17
2018-07-30T17:23:30.283Z,1.40
2018-07-30T17:25:58.202Z,1.55
2018-07-30T17:28:26.240Z,1.55
2018-07-30T17:30:54.211Z,1.50
2018-07-30T17:33:22.178Z,1.35
2018-07-30T17:35:51.396Z,2.52
2018-07-30T17:38:19.367Z,2.27
2018-07-30T17:40:47.292Z,1.42
2018-07-30T17:43:15.220Z,1.05
2018-07-30T17:45:43.261Z,1.12
2018-07-30T17:48:11.180Z,1.32
2018-07-30T17:50:39.427Z,0.90
2018-07-30T17:53:07.389Z,1.12
2018-07-30T17:55:35.428Z,1.37
2018-07-30T17:58:03.421Z,1.45
2018-07-30T18:00:31.398Z,1.10
2018-07-30T18:02:59.341Z,1.17
2018-07-30T18:05:27.280Z,1.00
2018-07-30T18:07:55.207Z,0.95
2018-07-30T18:10:23.134Z,0.60
2018-07-30T18:12:51.112Z,0.85
2018-07-30T18:15:19.035Z,0.70
2018-07-30T18:17:46.959Z,1.37
2018-07-30T18:20:14.885Z,0.93
2018-07-30T18:22:42.804Z,0.95
2018-07-30T18:25:10.725Z,1.27
2018-07-30T18:27:38.675Z,1.30
2018-07-30T18:30:06.748Z,1.00
2018-07-30T18:32:34.670Z,0.80
2018-07-30T18:35:02.623Z,1.73
2018-07-30T18:37:30.555Z,1.47
2018-07-30T18:39:58.469Z,1.27
2018-07-30T18:42:26.403Z,0.80
2018-07-30T18:44:54.464Z,1.50
2018-07-30T18:47:22.409Z,1.10
2018-07-30T18:49:50.352Z,2.37
2018-07-30T18:52:18.271Z,1.17
2018-07-30T18:54:46.191Z,2.17
2018-07-30T18:57:14.124Z,1.30
2018-07-30T18:59:42.049Z,0.80
2018-07-30T19:02:10.416Z,1.83
2018-07-30T19:04:38.398Z,0.70
2018-07-30T19:07:06.273Z,2.23
2018-07-30T19:09:34.194Z,1.23
2018-07-30T19:12:02.140Z,0.80
2018-07-30T19:14:30.064Z,0.80
2018-07-30T19:16:58.057Z,0.80
2018-07-30T19:19:25.993Z,1.17
2018-07-30T19:21:53.989Z,0.80
2018-07-30T19:24:21.942Z,0.70
2018-07-30T19:26:49.854Z,0.73
2018-07-30T19:29:17.784Z,0.60
2018-07-30T19:31:45.703Z,0.60
2018-07-30T19:34:13.633Z,0.60
2018-07-30T19:36:41.581Z,0.50
2018-07-30T19:39:11.754Z,0.70
2018-07-30T19:41:39.708Z,0.57
2018-07-30T19:44:07.973Z,0.70
2018-07-30T19:46:35.967Z,0.60
2018-07-30T19:49:04.409Z,0.87
2018-07-30T19:51:32.365Z,0.60
2018-07-30T19:54:00.290Z,0.57
2018-07-30T19:56:28.250Z,0.90
2018-07-30T19:58:56.590Z,0.87
2018-07-30T20:01:24.513Z,0.57
2018-07-30T20:03:52.457Z,0.70
2018-07-30T20:06:20.428Z,1.00
2018-07-30T20:08:48.362Z,0.73
2018-07-30T20:11:16.319Z,0.37
2018-07-30T20:13:44.228Z,0.60
2018-07-30T20:16:12.313Z,0.53
2018-07-30T20:18:40.400Z,0.70
2018-07-30T20:21:08.326Z,0.80
2018-07-30T20:23:36.827Z,0.77
2018-07-30T20:26:04.755Z,1.23
2018-07-30T20:28:32.831Z,0.80
2018-07-30T20:31:00.856Z,0.70
2018-07-30T20:33:28.757Z,0.53
2018-07-30T20:35:56.662Z,0.73
2018-07-30T20:38:24.586Z,0.60
2018-07-30T20:40:52.510Z,0.60
2018-07-30T20:43:20.469Z,0.80
2018-07-30T20:45:48.593Z,1.00
2018-07-30T20:48:16.537Z,1.20
2018-07-30T20:50:44.556Z,0.70
2018-07-30T20:53:12.483Z,1.00
2018-07-30T20:55:40.406Z,0.60
2018-07-30T20:58:08.352Z,0.80
2018-07-30T21:00:36.275Z,0.90
2018-07-30T21:03:04.262Z,0.70
2018-07-30T21:05:36.887Z,0.70
2018-07-30T21:08:04.912Z,0.80
2018-07-30T21:10:32.831Z,1.10
2018-07-30T21:13:00.803Z,0.80
2018-07-30T21:15:28.743Z,0.70
2018-07-30T21:17:57.031Z,0.77
2018-07-30T21:20:24.967Z,1.63
2018-07-30T21:22:52.876Z,0.77
2018-07-30T21:25:20.816Z,0.83
2018-07-30T21:27:48.790Z,0.60
2018-07-30T21:30:16.748Z,0.73
2018-07-30T21:32:44.686Z,0.60
2018-07-30T21:35:12.606Z,0.70
2018-07-30T21:37:40.551Z,0.70
2018-07-30T21:40:08.483Z,0.90
2018-07-30T21:42:36.428Z,0.90
2018-07-30T21:45:04.389Z,0.87
2018-07-30T21:47:32.362Z,1.27
2018-07-30T21:50:00.315Z,0.70
2018-07-30T21:52:28.248Z,0.60
2018-07-30T21:54:56.287Z,2.30
2018-07-30T21:57:24.217Z,0.93
2018-07-30T21:59:52.180Z,0.60
2018-07-30T22:02:20.126Z,0.60
2018-07-30T22:04:48.060Z,0.70
2018-07-30T22:07:15.988Z,1.20
2018-07-30T22:09:43.924Z,0.70
2018-07-30T22:12:11.867Z,0.50
2018-07-30T22:14:39.852Z,0.70
2018-07-30T22:17:07.794Z,0.60
2018-07-30T22:19:35.748Z,0.50
2018-07-30T22:22:03.782Z,0.77
2018-07-30T22:24:31.719Z,0.70
2018-07-30T22:26:59.723Z,0.70
2018-07-30T22:29:27.615Z,0.63
2018-07-30T22:31:55.884Z,2.03
2018-07-30T22:34:23.914Z,1.13
2018-07-30T22:36:51.859Z,1.20
2018-07-30T22:39:19.790Z,1.83
2018-07-30T22:41:47.716Z,1.30
2018-07-30T22:44:15.663Z,1.67
2018-07-30T22:46:43.579Z,1.40
2018-07-30T22:49:11.513Z,1.40
2018-07-30T22:51:39.435Z,1.33
2018-07-30T22:54:07.368Z,1.20
2018-07-30T22:56:35.308Z,2.43
2018-07-30T22:59:03.241Z,1.57
2018-07-30T23:01:31.177Z,1.20
2018-07-30T23:03:59.102Z,0.97
2018-07-30T23:06:29.195Z,1.10
2018-07-30T23:08:57.433Z,1.20
2018-07-30T23:11:25.364Z,1.50
2018-07-30T23:13:53.319Z,1.40
2018-07-30T23:16:21.251Z,1.97
2018-07-30T23:18:49.199Z,2.37
2018-07-30T23:21:17.201Z,4.30
2018-07-30T23:23:45.138Z,1.77
2018-07-30T23:26:13.279Z,1.03
2018-07-30T23:28:41.251Z,2.20
2018-07-30T23:31:09.179Z,0.93
2018-07-30T23:33:37.106Z,1.00
2018-07-30T23:36:05.245Z,1.50
2018-07-30T23:38:33.170Z,3.07
2018-07-30T23:41:01.353Z,2.50
2018-07-30T23:43:29.326Z,1.80
2018-07-30T23:45:57.667Z,1.10
2018-07-30T23:48:25.743Z,0.90
2018-07-30T23:50:53.907Z,1.20
2018-07-30T23:53:21.824Z,1.47
2018-07-30T23:55:49.758Z,1.53
2018-07-30T23:58:17.676Z,2.73
